• Join FlightAware (Why Join?)
  • Login
  • US Flag 
03:35AM EDT


 

Airport Tracker/Info


-or-


 

Live Flight TrackerFlight Track Log ✈ TAM3812 ✈ 12-May-2013 ✈ SBSP / CGH - SBCY / CGB

Flight Track Log - Related Links

Times and Time Zones

All times are in EDT time to prevent confusion due to time zone crossing. See the TAM3812 flight status page for this flight to view local times or setup timezone preferences in your user account.

Time Position Orientation Groundspeed Altitude Reporting Facility
EDT Latitude Longitude Course Direction KTS MPH feet Rate Location/Type
09:27PM -22.8801 -47.6127 310° West  Level Estimated
09:28PM -22.8119 -47.6992 311° West  Level Estimated
09:29PM -22.7437 -47.7856 311° West  Level Estimated
09:30PM -22.6754 -47.8719 311° West  Level Estimated
09:31PM -22.6071 -47.9581 311° West  Level Estimated
09:32PM -22.5388 -48.0443 311° West  Level Estimated
09:33PM -22.4704 -48.1304 311° West  Level Estimated
09:34PM -22.4020 -48.2164 311° West  Level Estimated
09:35PM -22.3335 -48.3022 311° West  Level Estimated
09:36PM -22.2649 -48.3881 311° West  Level Estimated
09:37PM -22.1964 -48.4738 311° West  Level Estimated
09:38PM -22.1278 -48.5594 311° West  Level Estimated
09:39PM -22.0591 -48.6450 311° West  Level Estimated
09:40PM -21.9904 -48.7305 311° West  Level Estimated
09:41PM -21.9216 -48.8159 311° West  Level Estimated
09:42PM -21.8528 -48.9012 311° West  Level Estimated
09:43PM -21.7840 -48.9864 311° West  Level Estimated
09:44PM -21.7151 -49.0716 311° West  Level Estimated
09:45PM -21.6462 -49.1567 311° West  Level Estimated
09:46PM -21.5772 -49.2416 311° West  Level Estimated
09:47PM -21.5082 -49.3266 311° West  Level Estimated
09:48PM -21.4391 -49.4114 311° West  Level Estimated
09:49PM -21.3701 -49.4961 311° West  Level Estimated
09:50PM -21.3009 -49.5808 311° West  Level Estimated
09:51PM -21.2317 -49.6654 311° West  Level Estimated
09:52PM -21.1625 -49.7499 311° West  Level Estimated
09:53PM -21.0932 -49.8343 311° West  Level Estimated
09:54PM -21.0239 -49.9187 311° West  Level Estimated
09:55PM -20.9546 -50.0030 311° West  Level Estimated
09:56PM -20.8852 -50.0872 311° West  Level Estimated
09:57PM -20.8158 -50.1713 311° West  Level Estimated
09:58PM -20.7463 -50.2553 311° West  Level Estimated
09:59PM -20.6768 -50.3393 311° West  Level Estimated
10:00PM -20.6072 -50.4231 312° West  Level Estimated
10:01PM -20.5376 -50.5070 312° West  Level Estimated
10:02PM -20.4680 -50.5907 312° West  Level Estimated
10:03PM -20.3983 -50.6744 312° West  Level Estimated
10:04PM -20.3286 -50.7579 312° West  Level Estimated
10:05PM -20.2588 -50.8414 312° West  Level Estimated
10:06PM -20.1890 -50.9249 312° West  Level Estimated
10:07PM -20.1192 -51.0082 312° West  Level Estimated
10:08PM -20.0493 -51.0915 312° West  Level Estimated
10:09PM -19.9794 -51.1747 312° West  Level Estimated
10:10PM -19.9094 -51.2579 312° West  Level Estimated
10:11PM -19.8395 -51.3409 312° West  Level Estimated
10:12PM -19.7694 -51.4239 312° West  Level Estimated
10:13PM -19.6994 -51.5068 312° West  Level Estimated
10:14PM -19.6292 -51.5896 312° West  Level Estimated
10:15PM -19.5591 -51.6724 312° West  Level Estimated
10:16PM -19.4889 -51.7551 312° West  Level Estimated
10:17PM -19.4187 -51.8377 312° West  Level Estimated
10:18PM -19.3484 -51.9203 312° West  Level Estimated
10:19PM -19.2782 -52.0028 312° West  Level Estimated
10:20PM -19.2078 -52.0852 312° West  Level Estimated
10:21PM -19.1375 -52.1675 312° West  Level Estimated
10:22PM -19.0671 -52.2498 312° West  Level Estimated
10:23PM -18.9966 -52.3320 312° West  Level Estimated
10:24PM -18.9261 -52.4141 312° West  Level Estimated
10:25PM -18.8556 -52.4962 312° West  Level Estimated
10:26PM -18.7851 -52.5782 312° West  Level Estimated
10:27PM -18.7145 -52.6601 312° West  Level Estimated
10:28PM -18.6439 -52.7420 312° West  Level Estimated
10:29PM -18.5732 -52.8237 312° West  Level Estimated
10:30PM -18.5025 -52.9055 312° West  Level Estimated
10:31PM -18.4318 -52.9871 312° West  Level Estimated
10:32PM -18.3611 -53.0687 312° West  Level Estimated
10:33PM -18.2903 -53.1502 312° West  Level Estimated
10:34PM -18.2194 -53.2317 312° West  Level Estimated
10:35PM -18.1486 -53.3131 312° West  Level Estimated
10:36PM -18.0777 -53.3944 313° West  Level Estimated
10:37PM -18.0068 -53.4756 313° West  Level Estimated
10:38PM -17.9358 -53.5568 313° West  Level Estimated
10:39PM -17.8648 -53.6379 313° West  Level Estimated
10:40PM -17.7938 -53.7190 313° West  Level Estimated
10:41PM -17.7227 -53.8000 313° West  Level Estimated
10:42PM -17.6516 -53.8809 313° West  Level Estimated
10:43PM -17.5805 -53.9618 313° West  Level Estimated
10:44PM -17.5093 -54.0426 313° West  Level Estimated
10:45PM -17.4381 -54.1233 313° West  Level Estimated
10:46PM -17.3669 -54.2040 313° West  Level Estimated
10:47PM -17.2956 -54.2846 313° West  Level Estimated
10:48PM -17.2243 -54.3652 313° West  Level Estimated
10:49PM -17.1530 -54.4457 313° West  Level Estimated
10:50PM -17.0816 -54.5261 313° West  Level Estimated
10:51PM -17.0102 -54.6065 313° West  Level Estimated
10:52PM -16.9388 -54.6868 313° West  Level Estimated
10:53PM -16.8674 -54.7670 313° West  Level Estimated
10:54PM -16.7959 -54.8472 313° West  Level Estimated
10:55PM -16.7244 -54.9273 313° West  Level Estimated
10:56PM -16.6528 -55.0074 313° West  Level Estimated
10:57PM -16.5812 -55.0874 313° West  Level Estimated
10:58PM -16.5096 -55.1673 313° West  Level Estimated
10:59PM -16.4380 -55.2472 313° West  Level Estimated
11:00PM -16.3663 -55.3270 313° West  Level Estimated
11:01PM -16.2946 -55.4068 313° West  Level Estimated
11:02PM -16.2229 -55.4865 313° West  Level Estimated
11:03PM -16.1511 -55.5661 313° West  Level Estimated
11:04PM -16.0794 -55.6457 313° West  Level Estimated
11:05PM -16.0075 -55.7253 313° West  Level Estimated
11:06PM -15.9357 -55.8047 313° West  Level Estimated
11:07PM -15.8638 -55.8842 313° West  Level Estimated
11:08PM -15.7919 -55.9635 313° West  Level Estimated
11:09PM -15.7200 -56.0428 313° West  Level Estimated
11:10PM -15.6529 -56.1167 313° West  Level Estimated
11:11PM -15.6529 -56.1167 136° Southeast  Level Estimated
11:12PM -15.6529 -56.1167 136° Southeast  Level Estimated
11:13PM -15.6529 -56.1167 136° Southeast  Level Estimated
11:14PM -15.6529 -56.1167 136° Southeast  Level Estimated
11:15PM -15.6529 -56.1167 136° Southeast  Level Estimated
11:16PM -15.6529 -56.1167 136° Southeast  Level Estimated
11:17PM -15.6529 -56.1167 136° Southeast  Level Estimated
11:18PM -15.6529 -56.1167 136° Southeast  Level Estimated
11:19PM -15.6529 -56.1167 136° Southeast  Level Estimated
11:20PM -15.6529 -56.1167 136° Southeast  Level Estimated
11:21PM -15.6529 -56.1167 136° Southeast  Level Estimated
11:22PM -15.6529 -56.1167 136° Southeast  Level Estimated
11:23PM -15.6529 -56.1167 136° Southeast  Level Estimated
11:24PM -15.6529 -56.1167 136° Southeast  Level Estimated
11:25PM -15.6529 -56.1167 136° Southeast  Level Estimated
11:26PM -15.6529 -56.1167 136° Southeast  Level Estimated